createdAt,value
2019-01-14T00:01:58.659Z,59.22
2019-01-14T00:04:28.468Z,59.30
2019-01-14T00:06:58.487Z,59.11
2019-01-14T00:09:31.130Z,58.73
2019-01-14T00:11:59.872Z,58.73
2019-01-14T00:14:29.270Z,59.09
2019-01-14T00:16:59.011Z,59.56
2019-01-14T00:19:28.481Z,59.47
2019-01-14T00:21:58.485Z,59.39
2019-01-14T00:24:28.530Z,59.71
2019-01-14T00:26:58.485Z,60.02
2019-01-14T00:29:28.506Z,59.93
2019-01-14T00:31:58.627Z,59.93
2019-01-14T00:34:28.954Z,59.94
2019-01-14T00:36:58.526Z,59.99
2019-01-14T00:39:28.617Z,60.19
2019-01-14T00:41:58.526Z,60.05
2019-01-14T00:44:28.515Z,59.81
2019-01-14T00:46:58.624Z,59.96
2019-01-14T00:49:28.492Z,59.33
2019-01-14T00:51:58.506Z,59.63
2019-01-14T00:54:28.697Z,58.82
2019-01-14T00:56:58.539Z,58.52
2019-01-14T00:59:28.550Z,58.76
2019-01-14T01:01:58.678Z,58.14
2019-01-14T01:04:28.505Z,58.03
2019-01-14T01:06:58.967Z,58.20
2019-01-14T01:09:28.659Z,58.09
2019-01-14T01:11:58.587Z,58.11
2019-01-14T01:14:28.540Z,58.20
2019-01-14T01:16:58.736Z,57.49
2019-01-14T01:19:28.570Z,57.88
2019-01-14T01:21:59.022Z,56.98
2019-01-14T01:24:28.698Z,57.67
2019-01-14T01:26:58.598Z,57.22
2019-01-14T01:29:28.626Z,57.23
2019-01-14T01:31:58.694Z,57.25
2019-01-14T01:34:28.644Z,57.19
2019-01-14T01:36:58.616Z,57.24
2019-01-14T01:39:28.908Z,57.60
2019-01-14T01:41:58.600Z,57.69
2019-01-14T01:44:28.602Z,57.62
2019-01-14T01:46:58.687Z,58.11
2019-01-14T01:49:28.629Z,58.06
2019-01-14T01:51:58.622Z,57.98
2019-01-14T01:54:28.838Z,58.28
2019-01-14T01:56:58.609Z,58.07
2019-01-14T01:59:28.645Z,58.33
2019-01-14T02:01:58.675Z,58.17
2019-01-14T02:04:28.669Z,58.41
2019-01-14T02:06:58.638Z,58.88
2019-01-14T02:09:28.771Z,58.75
2019-01-14T02:11:58.628Z,58.91
2019-01-14T02:14:28.648Z,58.91
2019-01-14T02:16:59.100Z,59.11
2019-01-14T02:19:28.658Z,59.33
2019-01-14T02:21:58.658Z,59.88
2019-01-14T02:24:28.855Z,60.05
2019-01-14T02:26:58.673Z,59.90
2019-01-14T02:29:28.685Z,60.11
2019-01-14T02:31:58.998Z,60.32
2019-01-14T02:34:28.687Z,59.96
2019-01-14T02:36:58.687Z,59.91
2019-01-14T02:39:28.862Z,59.92
2019-01-14T02:41:58.678Z,60.14
2019-01-14T02:44:28.687Z,60.05
2019-01-14T02:46:58.867Z,60.32
2019-01-14T02:49:28.723Z,60.36
2019-01-14T02:52:00.839Z,60.81
2019-01-14T02:54:30.495Z,60.51
2019-01-14T02:56:59.914Z,60.38
2019-01-14T02:59:29.312Z,60.28
2019-01-14T03:01:58.888Z,60.34
2019-01-14T03:04:28.787Z,59.78
2019-01-14T03:06:58.789Z,59.62
2019-01-14T03:09:28.964Z,59.35
2019-01-14T03:11:58.767Z,59.16
2019-01-14T03:14:28.740Z,59.26
2019-01-14T03:16:58.926Z,58.96
2019-01-14T03:19:28.826Z,58.89
2019-01-14T03:21:58.768Z,58.84
2019-01-14T03:24:28.863Z,58.84
2019-01-14T03:26:58.805Z,58.75
2019-01-14T03:29:29.147Z,58.26
2019-01-14T03:31:58.992Z,58.56
2019-01-14T03:34:28.806Z,58.69
2019-01-14T03:37:05.434Z,58.77
2019-01-14T03:39:30.059Z,58.94
2019-01-14T03:41:59.443Z,61.89
2019-01-14T03:44:28.821Z,64.23
2019-01-14T03:46:58.925Z,68.53
2019-01-14T03:49:28.841Z,71.41
2019-01-14T03:51:58.861Z,73.12
2019-01-14T03:54:29.980Z,74.24
2019-01-14T03:56:59.382Z,73.32
2019-01-14T03:59:28.884Z,73.40
2019-01-14T04:01:58.928Z,73.32
2019-01-14T04:04:31.364Z,73.45
2019-01-14T04:07:00.732Z,73.41
2019-01-14T04:09:30.171Z,73.58
2019-01-14T04:11:59.596Z,73.33
2019-01-14T04:14:29.032Z,72.90
2019-01-14T04:16:59.410Z,72.13
2019-01-14T04:19:28.901Z,72.54
2019-01-14T04:21:58.888Z,71.61
2019-01-14T04:24:29.089Z,71.30
2019-01-14T04:26:58.926Z,71.30
2019-01-14T04:29:28.922Z,71.76
2019-01-14T04:31:59.511Z,71.53
2019-01-14T04:34:28.932Z,71.25
2019-01-14T04:36:58.923Z,71.08
2019-01-14T04:39:29.287Z,70.75
2019-01-14T04:41:58.926Z,71.11
2019-01-14T04:44:28.931Z,70.28
2019-01-14T04:46:59.077Z,70.36
2019-01-14T04:49:28.970Z,69.75
2019-01-14T04:51:58.995Z,68.52
2019-01-14T04:54:29.189Z,68.03
2019-01-14T04:56:59.019Z,67.14
2019-01-14T04:59:29.032Z,66.56
2019-01-14T05:01:59.159Z,65.64
2019-01-14T05:04:29.036Z,65.01
2019-01-14T05:06:59.233Z,64.22
2019-01-14T05:09:30.717Z,64.28
2019-01-14T05:12:00.074Z,64.04
2019-01-14T05:14:29.492Z,63.63
2019-01-14T05:16:59.161Z,63.46
2019-01-14T05:19:29.309Z,62.40
2019-01-14T05:21:59.263Z,62.72
2019-01-14T05:24:29.199Z,61.64
2019-01-14T05:26:59.129Z,61.48
2019-01-14T05:29:29.043Z,60.62
2019-01-14T05:31:59.251Z,60.47
2019-01-14T05:34:29.250Z,59.36
2019-01-14T05:36:59.120Z,59.97
2019-01-14T05:39:29.135Z,59.53
2019-01-14T05:41:59.073Z,59.53
2019-01-14T05:44:29.078Z,59.48
2019-01-14T05:46:59.170Z,59.78
2019-01-14T05:49:29.109Z,59.89
2019-01-14T05:51:59.073Z,59.96
2019-01-14T05:54:29.261Z,59.88
2019-01-14T05:56:59.118Z,59.87
2019-01-14T05:59:29.073Z,59.78
2019-01-14T06:01:59.242Z,59.82
2019-01-14T06:04:29.107Z,59.87
2019-01-14T06:06:59.107Z,59.21
2019-01-14T06:09:29.401Z,59.64
2019-01-14T06:11:59.125Z,58.66
2019-01-14T06:14:29.143Z,58.72
2019-01-14T06:16:59.206Z,58.59
2019-01-14T06:19:30.968Z,58.92
2019-01-14T06:22:00.364Z,58.19
2019-01-14T06:24:29.919Z,58.57
2019-01-14T06:26:59.346Z,58.23
2019-01-14T06:29:29.172Z,58.75
2019-01-14T06:31:59.285Z,58.72
2019-01-14T06:34:29.174Z,57.94
2019-01-14T06:36:59.188Z,57.12
2019-01-14T06:39:29.569Z,57.55
2019-01-14T06:41:59.180Z,57.84
2019-01-14T06:44:29.168Z,57.53
2019-01-14T06:46:59.260Z,57.48
2019-01-14T06:49:29.199Z,57.69
2019-01-14T06:51:59.208Z,57.56
2019-01-14T06:54:29.489Z,57.57
2019-01-14T06:56:59.228Z,57.96
2019-01-14T06:59:29.221Z,57.80
2019-01-14T07:01:59.484Z,57.85
2019-01-14T07:04:29.243Z,58.03
2019-01-14T07:06:59.410Z,58.06
2019-01-14T07:09:29.381Z,58.31
2019-01-14T07:11:59.529Z,57.95
2019-01-14T07:14:29.360Z,57.45
2019-01-14T07:16:59.516Z,58.07
2019-01-14T07:19:29.362Z,58.07
2019-01-14T07:21:59.388Z,59.52
2019-01-14T07:24:29.538Z,62.72
2019-01-14T07:26:59.376Z,67.23
2019-01-14T07:29:29.412Z,68.52
2019-01-14T07:31:59.565Z,70.64
2019-01-14T07:34:29.477Z,71.49
2019-01-14T07:36:59.417Z,72.04
2019-01-14T07:39:29.570Z,72.54
2019-01-14T07:41:59.857Z,72.41
2019-01-14T07:44:29.468Z,72.71
2019-01-14T07:46:59.697Z,72.77
2019-01-14T07:49:29.481Z,73.10
2019-01-14T07:51:59.483Z,72.84
2019-01-14T07:54:29.648Z,72.61
2019-01-14T07:56:59.593Z,72.42
2019-01-14T07:59:29.477Z,72.57
2019-01-14T08:01:59.595Z,72.14
2019-01-14T08:04:29.538Z,72.33
2019-01-14T08:06:59.503Z,72.39
2019-01-14T08:09:29.591Z,73.69
2019-01-14T08:11:59.523Z,74.67
2019-01-14T08:14:29.556Z,75.57
2019-01-14T08:16:59.593Z,75.82
2019-01-14T08:19:29.548Z,75.82
2019-01-14T08:21:59.528Z,76.19
2019-01-14T08:24:29.587Z,75.44
2019-01-14T08:26:59.527Z,75.19
2019-01-14T08:29:29.576Z,75.06
2019-01-14T08:31:59.776Z,74.59
2019-01-14T08:34:29.607Z,74.96
2019-01-14T08:37:00.850Z,76.40
2019-01-14T08:39:30.397Z,77.06
2019-01-14T08:42:03.530Z,77.21
2019-01-14T08:44:39.034Z,76.84
2019-01-14T08:47:08.822Z,76.74
2019-01-14T08:49:38.233Z,76.67
2019-01-14T08:52:07.591Z,76.36
2019-01-14T08:54:37.116Z,76.24
2019-01-14T08:57:06.514Z,76.06
2019-01-14T08:59:35.898Z,75.58
2019-01-14T09:02:05.763Z,75.28
2019-01-14T09:04:37.834Z,74.62
2019-01-14T09:07:07.215Z,74.62
2019-01-14T09:09:36.771Z,74.61
2019-01-14T09:12:06.154Z,74.33
2019-01-14T09:14:35.524Z,72.98
2019-01-14T09:17:05.228Z,72.14
2019-01-14T09:19:34.632Z,71.23
2019-01-14T09:22:04.127Z,70.96
2019-01-14T09:24:33.622Z,70.47
2019-01-14T09:27:02.984Z,69.18
2019-01-14T09:29:32.372Z,69.14
2019-01-14T09:32:02.311Z,68.04
2019-01-14T09:34:31.973Z,68.16
2019-01-14T09:37:01.336Z,67.73
2019-01-14T09:39:30.927Z,66.98
2019-01-14T09:42:00.291Z,65.53
2019-01-14T09:44:29.699Z,65.82
2019-01-14T09:46:59.827Z,65.52
2019-01-14T09:49:29.815Z,65.00
2019-01-14T09:51:59.693Z,64.69
2019-01-14T09:54:29.764Z,64.46
2019-01-14T09:56:59.691Z,65.00
2019-01-14T09:59:29.677Z,64.68
2019-01-14T10:01:59.881Z,65.04
2019-01-14T10:04:29.793Z,65.54
2019-01-14T10:06:59.696Z,67.46
2019-01-14T10:09:29.894Z,68.03
2019-01-14T10:11:59.748Z,68.19
2019-01-14T10:14:29.738Z,68.87
2019-01-14T10:17:00.269Z,69.12
2019-01-14T10:19:30.131Z,68.19
2019-01-14T10:22:00.128Z,67.93
2019-01-14T10:24:30.312Z,66.99
2019-01-14T10:27:00.192Z,66.76
2019-01-14T10:29:30.208Z,67.05
2019-01-14T10:32:00.387Z,67.54
2019-01-14T10:34:30.231Z,66.87
2019-01-14T10:37:00.172Z,66.87
2019-01-14T10:39:30.247Z,66.81
2019-01-14T10:42:04.948Z,67.21
2019-01-14T10:44:31.307Z,67.56
2019-01-14T10:47:00.746Z,67.76
2019-01-14T10:49:30.207Z,67.85
2019-01-14T10:52:00.587Z,66.94
2019-01-14T10:54:30.451Z,66.85
2019-01-14T10:57:00.296Z,67.03
2019-01-14T10:59:30.231Z,66.40
2019-01-14T11:02:00.419Z,65.63
2019-01-14T11:04:30.268Z,66.14
2019-01-14T11:07:00.227Z,65.65
2019-01-14T11:09:30.345Z,65.61
2019-01-14T11:12:00.330Z,65.18
2019-01-14T11:14:30.310Z,64.31
2019-01-14T11:17:00.430Z,64.28
2019-01-14T11:19:30.480Z,64.63
2019-01-14T11:22:00.382Z,64.65
2019-01-14T11:24:49.878Z,63.23
2019-01-14T11:27:20.242Z,63.64
2019-01-14T11:29:52.968Z,63.44
2019-01-14T11:32:23.078Z,63.83
2019-01-14T11:34:52.748Z,63.94
2019-01-14T11:37:22.136Z,63.72
2019-01-14T11:39:51.671Z,63.67
2019-01-14T11:42:21.039Z,63.27
2019-01-14T11:44:50.482Z,63.16
2019-01-14T11:47:22.023Z,62.65
2019-01-14T11:49:51.643Z,62.90
2019-01-14T11:52:21.049Z,62.77
2019-01-14T11:54:50.959Z,61.78
2019-01-14T11:57:20.446Z,61.48
2019-01-14T11:59:49.860Z,62.33
2019-01-14T12:02:19.432Z,62.32
2019-01-14T12:04:48.806Z,62.03
2019-01-14T12:07:18.203Z,61.55
2019-01-14T12:09:47.735Z,60.94
2019-01-14T12:12:17.095Z,60.15
2019-01-14T12:14:46.474Z,60.46
2019-01-14T12:17:16.083Z,60.32
2019-01-14T12:19:45.455Z,60.98
2019-01-14T12:22:14.838Z,59.94
2019-01-14T12:24:44.259Z,59.80
2019-01-14T12:27:13.625Z,59.63
2019-01-14T12:29:43.033Z,59.80
2019-01-14T12:32:12.505Z,58.27
2019-01-14T12:34:41.886Z,57.88
2019-01-14T12:37:11.381Z,56.96
2019-01-14T12:39:40.840Z,57.75
2019-01-14T12:42:11.054Z,58.02
2019-01-14T12:44:40.488Z,57.87
2019-01-14T12:47:10.028Z,57.08
2019-01-14T12:49:39.407Z,56.92
2019-01-14T12:52:08.842Z,57.02
2019-01-14T12:54:40.875Z,57.12
2019-01-14T12:57:10.252Z,56.42
2019-01-14T12:59:39.888Z,56.67
2019-01-14T13:02:09.421Z,56.87
2019-01-14T13:04:38.795Z,57.32
2019-01-14T13:07:08.202Z,57.63
2019-01-14T13:09:38.613Z,57.39
2019-01-14T13:12:08.162Z,57.02
2019-01-14T13:14:37.563Z,57.86
2019-01-14T13:17:09.646Z,57.97
2019-01-14T13:19:39.039Z,58.76
2019-01-14T13:22:08.529Z,59.60
2019-01-14T13:24:39.497Z,60.82
2019-01-14T13:27:08.888Z,61.67
2019-01-14T13:29:38.283Z,62.67
2019-01-14T13:32:07.880Z,64.14
2019-01-14T13:34:37.635Z,64.50
2019-01-14T13:37:07.275Z,65.12
2019-01-14T13:39:36.958Z,65.55
2019-01-14T13:42:06.610Z,65.03
2019-01-14T13:44:36.044Z,64.70
2019-01-14T13:47:07.060Z,64.78
2019-01-14T13:49:36.531Z,64.53
2019-01-14T13:52:06.013Z,64.56
2019-01-14T13:54:35.635Z,64.69
2019-01-14T13:57:05.247Z,64.68
2019-01-14T13:59:34.647Z,63.95
2019-01-14T14:02:04.332Z,64.07
2019-01-14T14:04:33.950Z,62.78
2019-01-14T14:07:03.353Z,62.15
2019-01-14T14:09:32.857Z,61.95
2019-01-14T14:12:02.260Z,61.21
2019-01-14T14:14:31.757Z,60.94
2019-01-14T14:17:01.496Z,61.19
2019-01-14T14:19:30.998Z,60.68
2019-01-14T14:22:00.692Z,61.13
2019-01-14T14:24:30.977Z,61.76
2019-01-14T14:27:00.698Z,61.75
2019-01-14T14:29:30.712Z,61.92
2019-01-14T14:32:00.761Z,61.90
2019-01-14T14:34:30.727Z,62.10
2019-01-14T14:37:00.716Z,61.90
2019-01-14T14:39:30.864Z,61.01
2019-01-14T14:42:00.759Z,61.24
2019-01-14T14:44:30.811Z,61.11
2019-01-14T14:47:01.379Z,60.15
2019-01-14T14:49:30.871Z,59.98
2019-01-14T14:52:00.867Z,59.89
2019-01-14T14:54:30.951Z,59.58
2019-01-14T14:57:00.782Z,59.55
2019-01-14T14:59:30.777Z,59.50
2019-01-14T15:02:00.821Z,59.21
2019-01-14T15:04:30.985Z,58.94
2019-01-14T15:07:01.035Z,59.59
2019-01-14T15:09:31.714Z,59.70
2019-01-14T15:12:01.293Z,59.80
2019-01-14T15:14:31.156Z,60.04
2019-01-14T15:17:01.122Z,60.54
2019-01-14T15:19:31.073Z,60.83
2019-01-14T15:22:01.055Z,60.93
2019-01-14T15:24:31.315Z,61.31
2019-01-14T15:27:01.025Z,61.42
2019-01-14T15:29:31.082Z,61.45
2019-01-14T15:32:01.162Z,61.93
2019-01-14T15:34:31.039Z,61.92
2019-01-14T15:37:01.076Z,62.25
2019-01-14T15:39:31.139Z,62.22
2019-01-14T15:42:01.137Z,62.42
2019-01-14T15:44:31.107Z,62.61
2019-01-14T15:47:01.250Z,62.85
2019-01-14T15:49:31.147Z,62.90
2019-01-14T15:52:01.146Z,62.96
2019-01-14T15:54:31.432Z,63.15
2019-01-14T15:57:01.112Z,62.98
2019-01-14T15:59:31.149Z,63.05
2019-01-14T16:02:01.227Z,63.19
2019-01-14T16:04:31.182Z,62.85
2019-01-14T16:07:01.182Z,62.84
2019-01-14T16:09:31.763Z,62.47
2019-01-14T16:12:01.189Z,62.80
2019-01-14T16:14:31.196Z,62.22
2019-01-14T16:17:01.767Z,62.11
2019-01-14T16:19:31.219Z,61.61
2019-01-14T16:22:01.199Z,61.53
2019-01-14T16:24:31.241Z,61.70
2019-01-14T16:27:02.075Z,61.46
2019-01-14T16:29:31.506Z,61.39
2019-01-14T16:32:01.492Z,61.71
2019-01-14T16:34:33.350Z,61.75
2019-01-14T16:37:02.807Z,61.30
2019-01-14T16:39:32.450Z,61.34
2019-01-14T16:42:02.537Z,61.74
2019-01-14T16:44:32.523Z,61.82
2019-01-14T16:47:02.723Z,61.98
2019-01-14T16:49:32.642Z,61.84
2019-01-14T16:52:02.552Z,61.96
2019-01-14T16:54:32.609Z,61.92
2019-01-14T16:57:02.576Z,61.67
2019-01-14T16:59:32.599Z,62.04
2019-01-14T17:02:02.735Z,61.85
2019-01-14T17:04:32.667Z,61.98
2019-01-14T17:07:02.589Z,61.73
2019-01-14T17:09:32.811Z,61.78
2019-01-14T17:12:02.619Z,61.78
2019-01-14T17:14:32.874Z,61.28
2019-01-14T17:17:02.691Z,61.41
2019-01-14T17:19:32.599Z,61.48
2019-01-14T17:22:02.601Z,61.51
2019-01-14T17:24:35.013Z,61.55
2019-01-14T17:27:04.541Z,61.34
2019-01-14T17:29:33.950Z,61.38
2019-01-14T17:32:03.602Z,61.15
2019-01-14T17:34:33.046Z,61.43
2019-01-14T17:37:02.897Z,61.35
2019-01-14T17:39:32.779Z,61.38
2019-01-14T17:42:02.970Z,61.49
2019-01-14T17:44:32.644Z,61.66
2019-01-14T17:47:02.735Z,62.02
2019-01-14T17:49:32.654Z,62.01
2019-01-14T17:52:02.700Z,61.87
2019-01-14T17:54:32.749Z,62.09
2019-01-14T17:57:02.704Z,62.66
2019-01-14T17:59:32.690Z,62.55
2019-01-14T18:02:03.170Z,62.98
2019-01-14T18:04:32.730Z,63.53
2019-01-14T18:07:02.668Z,63.53
2019-01-14T18:09:32.857Z,63.56
2019-01-14T18:12:02.742Z,63.52
2019-01-14T18:14:32.707Z,63.48
2019-01-14T18:17:03.261Z,63.54
2019-01-14T18:19:32.724Z,63.49
2019-01-14T18:22:02.708Z,63.18
2019-01-14T18:24:32.968Z,63.31
2019-01-14T18:27:02.725Z,63.51
2019-01-14T18:29:32.734Z,62.86
2019-01-14T18:32:02.786Z,62.67
2019-01-14T18:34:32.772Z,62.47
2019-01-14T18:37:02.751Z,62.35
2019-01-14T18:39:32.936Z,61.72
2019-01-14T18:42:02.788Z,62.09
2019-01-14T18:44:32.766Z,62.26
2019-01-14T18:47:02.949Z,62.43
2019-01-14T18:49:32.771Z,62.82
2019-01-14T18:52:02.788Z,62.42
2019-01-14T18:54:33.075Z,62.52
2019-01-14T18:57:02.790Z,62.49
2019-01-14T18:59:32.817Z,62.16
2019-01-14T19:02:02.933Z,62.62
2019-01-14T19:04:32.791Z,62.02
2019-01-14T19:07:02.899Z,62.25
2019-01-14T19:09:32.950Z,62.40
2019-01-14T19:12:02.825Z,62.76
2019-01-14T19:14:32.900Z,63.01
2019-01-14T19:17:02.889Z,62.97
2019-01-14T19:19:32.815Z,62.81
2019-01-14T19:22:03.135Z,63.10
2019-01-14T19:24:33.017Z,63.01
2019-01-14T19:27:02.808Z,63.04
2019-01-14T19:29:33.108Z,62.71
2019-01-14T19:32:03.017Z,62.89
2019-01-14T19:34:32.837Z,62.98
2019-01-14T19:37:02.850Z,63.14
2019-01-14T19:39:32.996Z,63.71
2019-01-14T19:42:02.926Z,63.75
2019-01-14T19:44:32.857Z,63.72
2019-01-14T19:47:03.101Z,63.85
2019-01-14T19:49:33.670Z,64.20
2019-01-14T19:52:03.238Z,64.18
2019-01-14T19:54:33.077Z,64.34
2019-01-14T19:57:02.932Z,64.56
2019-01-14T19:59:32.926Z,64.72
2019-01-14T20:02:03.009Z,64.60
2019-01-14T20:04:32.897Z,64.62
2019-01-14T20:07:10.260Z,64.75
2019-01-14T20:09:34.234Z,65.05
2019-01-14T20:12:03.707Z,65.08
2019-01-14T20:14:33.112Z,64.69
2019-01-14T20:17:03.101Z,64.53
2019-01-14T20:19:32.968Z,64.70
2019-01-14T20:22:02.921Z,64.50
2019-01-14T20:24:35.157Z,64.18
2019-01-14T20:27:04.963Z,63.62
2019-01-14T20:29:35.333Z,63.84
2019-01-14T20:32:05.138Z,63.84
2019-01-14T20:34:34.599Z,63.82
2019-01-14T20:37:03.967Z,63.51
2019-01-14T20:39:33.492Z,63.49
2019-01-14T20:42:03.021Z,62.81
2019-01-14T20:44:32.985Z,62.81
2019-01-14T20:47:03.013Z,62.04
2019-01-14T20:49:32.966Z,61.42
2019-01-14T20:52:03.047Z,61.52
2019-01-14T20:54:33.232Z,60.92
2019-01-14T20:57:02.982Z,60.76
2019-01-14T20:59:34.505Z,60.75
2019-01-14T21:02:04.377Z,60.59
2019-01-14T21:04:33.800Z,60.09
2019-01-14T21:07:03.198Z,59.93
2019-01-14T21:09:33.144Z,59.86
2019-01-14T21:12:03.056Z,59.90
2019-01-14T21:14:33.164Z,59.60
2019-01-14T21:17:03.181Z,59.50
2019-01-14T21:19:33.121Z,59.54
2019-01-14T21:22:03.215Z,59.60
2019-01-14T21:24:33.291Z,59.63
2019-01-14T21:27:03.284Z,59.81
2019-01-14T21:29:33.093Z,59.89
2019-01-14T21:32:03.258Z,60.03
2019-01-14T21:34:33.152Z,59.91
2019-01-14T21:37:03.127Z,59.86
2019-01-14T21:39:33.303Z,59.96
2019-01-14T21:42:03.160Z,59.91
2019-01-14T21:44:33.166Z,60.18
2019-01-14T21:47:03.417Z,60.16
2019-01-14T21:49:33.140Z,60.48
2019-01-14T21:52:03.192Z,60.36
2019-01-14T21:54:33.344Z,59.99
2019-01-14T21:57:03.112Z,60.19
2019-01-14T21:59:33.158Z,60.03
2019-01-14T22:02:03.376Z,59.75
2019-01-14T22:04:33.148Z,59.93
2019-01-14T22:07:03.137Z,59.68
2019-01-14T22:09:33.207Z,59.55
2019-01-14T22:12:03.226Z,59.43
2019-01-14T22:14:33.192Z,59.37
2019-01-14T22:17:03.285Z,59.27
2019-01-14T22:19:33.180Z,59.23
2019-01-14T22:22:03.313Z,59.26
2019-01-14T22:24:33.233Z,59.32
2019-01-14T22:27:03.233Z,59.26
2019-01-14T22:29:33.197Z,59.22
2019-01-14T22:32:03.629Z,59.39
2019-01-14T22:34:33.271Z,59.19
2019-01-14T22:37:03.219Z,59.40
2019-01-14T22:39:33.456Z,59.47
2019-01-14T22:42:03.219Z,59.56
2019-01-14T22:44:33.200Z,59.73
2019-01-14T22:47:03.379Z,59.81
2019-01-14T22:49:33.242Z,59.87
2019-01-14T22:52:03.208Z,60.00
2019-01-14T22:54:33.276Z,60.42
2019-01-14T22:57:03.210Z,60.65
2019-01-14T22:59:33.256Z,60.92
2019-01-14T23:02:03.429Z,60.75
2019-01-14T23:04:33.208Z,60.90
2019-01-14T23:07:03.273Z,61.15
2019-01-14T23:09:33.359Z,61.10
2019-01-14T23:12:03.397Z,61.26
2019-01-14T23:14:33.239Z,61.26
2019-01-14T23:17:03.358Z,61.24
2019-01-14T23:19:33.216Z,61.30
2019-01-14T23:22:03.205Z,61.66
2019-01-14T23:24:33.327Z,61.39
2019-01-14T23:27:03.328Z,61.57
2019-01-14T23:29:33.237Z,61.55
2019-01-14T23:32:03.323Z,61.55
2019-01-14T23:34:33.246Z,61.01
2019-01-14T23:37:03.605Z,60.98
2019-01-14T23:39:33.422Z,60.75
2019-01-14T23:42:03.276Z,60.33
2019-01-14T23:44:33.277Z,60.28
2019-01-14T23:47:03.363Z,59.93
2019-01-14T23:49:33.278Z,59.84
2019-01-14T23:52:03.307Z,59.70
2019-01-14T23:54:37.114Z,59.48
2019-01-14T23:57:04.568Z,59.33
2019-01-14T23:59:33.973Z,59.08
